createdAt,value
2022-08-29T00:02:52.003Z,99904.00
2022-08-29T00:05:54.102Z,99897.75
2022-08-29T00:08:56.519Z,99899.97
2022-08-29T00:11:58.586Z,99897.13
2022-08-29T00:15:00.747Z,99891.88
2022-08-29T00:18:02.895Z,99890.84
2022-08-29T00:21:07.550Z,99891.53
2022-08-29T00:24:09.627Z,99892.00
2022-08-29T00:27:11.704Z,99889.22
2022-08-29T00:30:14.384Z,99893.06
2022-08-29T00:33:16.469Z,99891.44
2022-08-29T00:36:18.548Z,99896.31
2022-08-29T00:39:23.128Z,99885.41
2022-08-29T00:42:25.838Z,99903.91
2022-08-29T00:45:28.019Z,99902.50
2022-08-29T00:48:30.146Z,99902.03
2022-08-29T00:51:32.301Z,99903.31
2022-08-29T00:54:34.618Z,99910.38
2022-08-29T00:57:36.906Z,99905.38
2022-08-29T01:00:39.122Z,99910.50
2022-08-29T01:03:42.946Z,99914.44
2022-08-29T01:06:45.339Z,99913.25
2022-08-29T01:09:47.479Z,99911.06
2022-08-29T01:12:49.758Z,99911.41
2022-08-29T01:15:52.002Z,99914.19
2022-08-29T01:18:57.062Z,99917.41
2022-08-29T01:22:10.495Z,99913.53
2022-08-29T01:25:16.970Z,99911.50
2022-08-29T01:28:28.759Z,99914.19
2022-08-29T01:31:56.207Z,99915.44
2022-08-29T01:34:59.698Z,99921.69
2022-08-29T01:38:01.772Z,99914.69
2022-08-29T01:41:03.971Z,99925.50
2022-08-29T01:44:11.979Z,99927.66
2022-08-29T01:47:14.108Z,99931.53
2022-08-29T01:50:17.679Z,99934.69
2022-08-29T01:53:19.760Z,99933.16
2022-08-29T01:56:28.235Z,99935.06
2022-08-29T01:59:31.024Z,99939.59
2022-08-29T02:02:34.137Z,99932.06
2022-08-29T02:05:36.799Z,99938.31
2022-08-29T02:08:40.175Z,99928.56
2022-08-29T02:11:42.267Z,99934.00
2022-08-29T02:14:44.539Z,99934.81
2022-08-29T02:17:48.443Z,99934.06
2022-08-29T02:20:50.705Z,99939.13
2022-08-29T02:23:54.118Z,99945.31
2022-08-29T02:26:56.691Z,99942.00
2022-08-29T02:29:59.505Z,99935.19
2022-08-29T02:33:01.595Z,99948.47
2022-08-29T02:36:07.527Z,99938.81
2022-08-29T02:39:10.107Z,99942.31
2022-08-29T02:42:13.002Z,99937.63
2022-08-29T02:45:15.179Z,99940.97
2022-08-29T02:48:17.950Z,99947.84
2022-08-29T02:51:27.723Z,99942.28
2022-08-29T02:54:29.858Z,99943.16
2022-08-29T02:57:31.949Z,99940.88
2022-08-29T03:00:35.757Z,99940.56
2022-08-29T03:03:38.007Z,99940.81
2022-08-29T03:06:40.085Z,99943.88
2022-08-29T03:09:42.380Z,99941.44
2022-08-29T03:12:44.855Z,99942.50
2022-08-29T03:15:47.783Z,99942.47
2022-08-29T03:18:50.100Z,99945.56
2022-08-29T03:21:52.210Z,99944.34
2022-08-29T03:24:54.303Z,99941.97
2022-08-29T03:27:56.951Z,99943.88
2022-08-29T03:30:59.073Z,99931.28
2022-08-29T03:34:01.215Z,99935.75
2022-08-29T03:37:03.356Z,99944.88
2022-08-29T03:40:06.392Z,99937.41
2022-08-29T03:43:09.601Z,99939.78
2022-08-29T03:46:11.719Z,99940.69
2022-08-29T03:49:15.743Z,99933.28
2022-08-29T03:52:17.874Z,99933.59
2022-08-29T03:55:20.337Z,99933.88
2022-08-29T03:58:22.415Z,99931.41
2022-08-29T04:01:28.390Z,99931.13
2022-08-29T04:04:49.375Z,99931.47
2022-08-29T04:07:56.125Z,99931.19
2022-08-29T04:10:58.286Z,99937.16
2022-08-29T04:14:00.363Z,99942.50
2022-08-29T04:17:04.281Z,99939.97
2022-08-29T04:20:07.878Z,99933.41
2022-08-29T04:23:12.645Z,99932.13
2022-08-29T04:26:36.874Z,99934.03
2022-08-29T04:29:39.402Z,99932.03
2022-08-29T04:32:41.587Z,99938.91
2022-08-29T04:35:43.706Z,99932.47
2022-08-29T04:38:45.798Z,99932.38
2022-08-29T04:41:47.895Z,99937.78
2022-08-29T04:44:49.975Z,99936.28
2022-08-29T04:47:52.162Z,99943.31
2022-08-29T04:50:58.323Z,99946.25
2022-08-29T04:54:00.435Z,99939.88
2022-08-29T04:57:03.399Z,99946.16
2022-08-29T05:00:13.916Z,99945.31
2022-08-29T05:03:16.016Z,99945.06
2022-08-29T05:06:19.746Z,99953.56
2022-08-29T05:09:24.685Z,99954.84
2022-08-29T05:12:28.873Z,99957.16
2022-08-29T05:15:31.343Z,99953.66
2022-08-29T05:18:33.725Z,99957.59
2022-08-29T05:21:37.518Z,99967.47
2022-08-29T05:24:39.677Z,99964.09
2022-08-29T05:27:41.905Z,99967.16
2022-08-29T05:30:44.231Z,99969.59
2022-08-29T05:33:46.423Z,99965.13
2022-08-29T05:36:48.577Z,99970.38
2022-08-29T05:39:50.875Z,99972.00
2022-08-29T05:42:53.027Z,99969.56
2022-08-29T05:46:03.673Z,99973.06
2022-08-29T05:49:05.976Z,99971.44
2022-08-29T05:52:08.218Z,99973.88
2022-08-29T05:55:11.115Z,99977.34
2022-08-29T05:58:13.468Z,99980.72
2022-08-29T06:01:22.331Z,99979.66
2022-08-29T06:04:28.069Z,99985.16
2022-08-29T06:07:31.391Z,99984.38
2022-08-29T06:10:34.055Z,99991.59
2022-08-29T06:13:36.243Z,99990.59
2022-08-29T06:16:39.629Z,99989.38
2022-08-29T06:19:42.562Z,99993.63
2022-08-29T06:22:44.659Z,99984.09
2022-08-29T06:25:54.819Z,99998.03
2022-08-29T06:28:57.103Z,100000.75
2022-08-29T06:31:59.452Z,99999.31
2022-08-29T06:35:01.663Z,99996.41
2022-08-29T06:38:03.902Z,99996.63
2022-08-29T06:41:11.987Z,99996.25
2022-08-29T06:44:14.743Z,100004.25
2022-08-29T06:47:16.905Z,100004.81
2022-08-29T06:50:19.090Z,99998.84
2022-08-29T06:53:31.714Z,99998.69
2022-08-29T06:56:37.076Z,99997.03
2022-08-29T06:59:39.508Z,100006.63
2022-08-29T07:02:42.200Z,100006.81
2022-08-29T07:05:44.367Z,100009.75
2022-08-29T07:08:55.147Z,100005.09
2022-08-29T07:11:57.794Z,100008.56
2022-08-29T07:14:59.947Z,100013.59
2022-08-29T07:18:02.031Z,100004.03
2022-08-29T07:21:08.595Z,100010.78
2022-08-29T07:24:10.803Z,100004.72
2022-08-29T07:27:13.631Z,100009.53
2022-08-29T07:30:16.562Z,100004.72
2022-08-29T07:33:18.645Z,100010.22
2022-08-29T07:36:20.725Z,100004.16
2022-08-29T07:39:23.098Z,100015.34
2022-08-29T07:42:25.350Z,100010.84
2022-08-29T07:45:27.436Z,100014.50
2022-08-29T07:48:29.527Z,100016.47
2022-08-29T07:51:31.678Z,100013.34
2022-08-29T07:54:33.826Z,100015.34
2022-08-29T07:57:39.669Z,100017.97
2022-08-29T08:00:42.116Z,100023.81
2022-08-29T08:03:44.286Z,100016.63
2022-08-29T08:06:47.436Z,100013.09
2022-08-29T08:09:49.572Z,100018.72
2022-08-29T08:12:51.787Z,100017.84
2022-08-29T08:15:55.507Z,100018.09
2022-08-29T08:18:57.751Z,100019.25
2022-08-29T08:21:59.947Z,100022.75
2022-08-29T08:25:02.703Z,100017.75
2022-08-29T08:28:04.920Z,100018.13
2022-08-29T08:31:08.184Z,100020.22
2022-08-29T08:34:10.338Z,100025.94
2022-08-29T08:37:15.940Z,100024.91
2022-08-29T08:40:28.144Z,100027.75
2022-08-29T08:43:50.470Z,100032.94
2022-08-29T08:46:58.490Z,100032.31
2022-08-29T08:50:23.656Z,100036.88
2022-08-29T08:53:28.465Z,100028.91
2022-08-29T08:56:39.084Z,100029.69
2022-08-29T08:59:44.096Z,100037.00
2022-08-29T09:03:17.175Z,100028.72
2022-08-29T09:06:55.751Z,100034.41
2022-08-29T09:10:33.916Z,100036.28
2022-08-29T09:14:18.146Z,100032.75
2022-08-29T09:17:30.983Z,100040.69
2022-08-29T09:20:39.670Z,100038.47
2022-08-29T09:23:54.921Z,100032.78
2022-08-29T09:26:57.057Z,100037.09
2022-08-29T09:30:14.947Z,100035.19
2022-08-29T09:33:17.314Z,100044.25
2022-08-29T09:36:48.524Z,100044.13
2022-08-29T09:39:59.927Z,100046.00
2022-08-29T09:43:02.925Z,100050.25
2022-08-29T09:46:11.287Z,100047.63
2022-08-29T09:49:18.586Z,100053.94
2022-08-29T09:52:24.389Z,100045.38
2022-08-29T09:55:37.524Z,100046.31
2022-08-29T09:58:41.678Z,100047.34
2022-08-29T10:01:43.836Z,100036.97
2022-08-29T10:04:49.706Z,100042.81
2022-08-29T10:07:53.522Z,100035.06
2022-08-29T10:11:21.263Z,100046.19
2022-08-29T10:14:35.866Z,100043.53
2022-08-29T10:18:05.985Z,100046.84
2022-08-29T10:21:26.500Z,100049.84
2022-08-29T10:24:43.781Z,100052.09
2022-08-29T10:27:55.825Z,100052.69
2022-08-29T10:31:08.799Z,100060.50
2022-08-29T10:34:46.897Z,100057.09
2022-08-29T10:38:04.026Z,100060.72
2022-08-29T10:41:40.562Z,100062.22
2022-08-29T10:45:09.710Z,100046.69
2022-08-29T10:48:20.243Z,100060.00
2022-08-29T10:51:50.554Z,100057.25
2022-08-29T10:55:17.146Z,100062.34
2022-08-29T10:58:59.547Z,100065.03
2022-08-29T11:02:39.651Z,100064.38
2022-08-29T11:05:49.270Z,100058.72
2022-08-29T11:09:35.290Z,100063.44
2022-08-29T11:13:05.658Z,100063.00
2022-08-29T11:16:21.351Z,100050.50
2022-08-29T11:19:47.192Z,100046.31
2022-08-29T11:23:04.780Z,100041.78
2022-08-29T11:26:27.029Z,100045.78
2022-08-29T11:29:43.190Z,100028.88
2022-08-29T11:33:19.409Z,100026.72
2022-08-29T11:36:49.374Z,100027.75
2022-08-29T11:40:02.777Z,100039.53
2022-08-29T11:43:12.174Z,100048.97
2022-08-29T11:46:15.149Z,100044.38
2022-08-29T11:49:37.075Z,100033.94
2022-08-29T11:52:39.142Z,100032.03
2022-08-29T11:55:46.308Z,100045.69
2022-08-29T11:58:50.091Z,100041.56
2022-08-29T12:02:00.675Z,100038.31
2022-08-29T12:05:17.709Z,100044.00
2022-08-29T12:08:47.144Z,100049.56
2022-08-29T12:12:13.214Z,100043.13
2022-08-29T12:15:29.909Z,100041.41
2022-08-29T12:18:36.708Z,100040.09
2022-08-29T12:21:42.199Z,100038.25
2022-08-29T12:24:44.393Z,100034.00
2022-08-29T12:28:43.435Z,100033.41
2022-08-29T12:32:27.339Z,100031.53
2022-08-29T12:36:05.579Z,100037.97
2022-08-29T12:39:23.414Z,100038.09
2022-08-29T12:42:51.595Z,100034.50
2022-08-29T12:45:53.999Z,100037.16
2022-08-29T12:49:51.664Z,100037.19
2022-08-29T12:53:26.241Z,100029.91
2022-08-29T12:56:28.345Z,100037.16
2022-08-29T12:59:30.563Z,100031.81
2022-08-29T13:02:35.999Z,100037.09
2022-08-29T13:05:39.651Z,100033.97
2022-08-29T13:08:42.120Z,100032.13
2022-08-29T13:11:44.256Z,100034.94
2022-08-29T13:15:00.319Z,100032.53
2022-08-29T13:18:02.481Z,100022.66
2022-08-29T13:21:34.173Z,100031.69
2022-08-29T13:24:36.261Z,100036.53
2022-08-29T13:27:38.343Z,100031.16
2022-08-29T13:30:40.419Z,100032.22
2022-08-29T13:33:46.007Z,100037.84
2022-08-29T13:37:01.403Z,100039.13
2022-08-29T13:40:33.174Z,100038.91
2022-08-29T13:43:41.876Z,100035.41
2022-08-29T13:46:47.379Z,100042.34
2022-08-29T13:49:50.120Z,100022.38
2022-08-29T13:52:54.525Z,100028.63
2022-08-29T13:55:57.012Z,100030.00
2022-08-29T13:58:59.126Z,100023.75
2022-08-29T14:02:10.215Z,100019.72
2022-08-29T14:05:13.800Z,100013.50
2022-08-29T14:08:16.258Z,100013.31
2022-08-29T14:11:18.453Z,100004.34
2022-08-29T14:14:20.528Z,100003.22
2022-08-29T14:17:22.711Z,100008.25
2022-08-29T14:20:25.207Z,100014.75
2022-08-29T14:23:27.348Z,100015.72
2022-08-29T14:26:29.436Z,99997.94
2022-08-29T14:29:31.932Z,100003.63
2022-08-29T14:32:34.123Z,100001.44
2022-08-29T14:35:36.254Z,100015.81
2022-08-29T14:38:44.571Z,100004.53
2022-08-29T14:41:46.782Z,100007.53
2022-08-29T14:44:48.919Z,100000.63
2022-08-29T14:47:50.997Z,99998.09
2022-08-29T14:50:53.058Z,99988.75
2022-08-29T14:53:55.185Z,99991.06
2022-08-29T14:56:57.302Z,99997.31
2022-08-29T14:59:59.366Z,99998.59
2022-08-29T15:03:01.655Z,99997.53
2022-08-29T15:06:06.122Z,100000.63
2022-08-29T15:09:08.254Z,100004.78
2022-08-29T15:12:14.479Z,99987.22
2022-08-29T15:15:16.586Z,99997.09
2022-08-29T15:18:47.997Z,99991.34
2022-08-29T15:21:41.070Z,99995.75
2022-08-29T15:24:43.146Z,99993.94
2022-08-29T15:27:46.896Z,99983.63
2022-08-29T15:30:49.144Z,99979.84
2022-08-29T15:33:51.362Z,99987.03
2022-08-29T15:36:54.180Z,99990.13
2022-08-29T15:39:56.460Z,99973.13
2022-08-29T15:42:58.650Z,99978.44
2022-08-29T15:46:00.820Z,99986.53
2022-08-29T15:49:03.814Z,99983.06
2022-08-29T15:52:06.020Z,99983.94
2022-08-29T15:55:08.379Z,99987.06
2022-08-29T15:58:10.486Z,99979.00
2022-08-29T16:01:12.598Z,99981.25
2022-08-29T16:04:15.988Z,99978.53
2022-08-29T16:07:18.185Z,99987.59
2022-08-29T16:10:20.406Z,99994.38
2022-08-29T16:13:22.492Z,99993.59
2022-08-29T16:16:25.190Z,99992.72
2022-08-29T16:19:27.503Z,99998.19
2022-08-29T16:22:29.682Z,100003.47
2022-08-29T16:25:32.376Z,99998.19
2022-08-29T16:28:35.037Z,99998.03
2022-08-29T16:31:37.364Z,99997.59
2022-08-29T16:34:39.490Z,99996.50
2022-08-29T16:37:41.592Z,99992.19
2022-08-29T16:40:43.792Z,99996.72
2022-08-29T16:43:51.768Z,100005.97
2022-08-29T16:46:54.135Z,100001.84
2022-08-29T16:49:56.240Z,100003.63
2022-08-29T16:52:58.354Z,100000.53
2022-08-29T16:56:09.198Z,99997.94
2022-08-29T16:59:12.547Z,99995.19
2022-08-29T17:02:14.690Z,99992.28
2022-08-29T17:05:18.431Z,99989.97
2022-08-29T17:08:20.471Z,99990.78
2022-08-29T17:11:22.559Z,99991.38
2022-08-29T17:14:24.849Z,99987.16
2022-08-29T17:17:27.104Z,99993.03
2022-08-29T17:20:29.184Z,99993.88
2022-08-29T17:23:31.772Z,99999.13
2022-08-29T17:26:35.843Z,100009.47
2022-08-29T17:29:41.889Z,100014.59
2022-08-29T17:32:44.379Z,100007.91
2022-08-29T17:35:46.864Z,100005.06
2022-08-29T17:38:49.065Z,100008.59
2022-08-29T17:41:51.863Z,100008.84
2022-08-29T17:44:54.592Z,100004.75
2022-08-29T17:47:56.690Z,99995.47
2022-08-29T17:50:58.840Z,99993.41
2022-08-29T17:54:00.932Z,99999.69
2022-08-29T17:57:03.694Z,99996.16
2022-08-29T18:00:07.279Z,99995.22
2022-08-29T18:03:12.444Z,99996.81
2022-08-29T18:06:15.317Z,100001.94
2022-08-29T18:09:17.628Z,100000.69
2022-08-29T18:12:20.332Z,100000.03
2022-08-29T18:15:22.421Z,99993.97
2022-08-29T18:18:25.762Z,99990.59
2022-08-29T18:21:29.524Z,99995.16
2022-08-29T18:24:31.611Z,99992.13
2022-08-29T18:27:33.859Z,99986.88
2022-08-29T18:30:36.076Z,99993.94
2022-08-29T18:33:57.208Z,99995.94
2022-08-29T18:37:00.278Z,99996.88
2022-08-29T18:40:04.056Z,99989.78
2022-08-29T18:43:07.319Z,99992.22
2022-08-29T18:46:12.099Z,99992.16
2022-08-29T18:49:14.940Z,99991.22
2022-08-29T18:52:17.020Z,99995.53
2022-08-29T18:55:19.399Z,100002.19
2022-08-29T18:58:28.070Z,100004.53
2022-08-29T19:01:30.471Z,100012.16
2022-08-29T19:04:32.632Z,100013.78
2022-08-29T19:07:34.986Z,100009.00
2022-08-29T19:10:37.219Z,100016.81
2022-08-29T19:13:44.083Z,100011.09
2022-08-29T19:16:46.846Z,100010.94
2022-08-29T19:20:10.460Z,100012.97
2022-08-29T19:23:14.631Z,100016.59
2022-08-29T19:26:28.395Z,100022.00
2022-08-29T19:29:31.150Z,100022.16
2022-08-29T19:32:33.235Z,100029.81
2022-08-29T19:35:38.001Z,100023.53
2022-08-29T19:38:41.723Z,100021.38
2022-08-29T19:41:43.827Z,100032.41
2022-08-29T19:44:45.943Z,100032.19
2022-08-29T19:47:50.439Z,100022.28
2022-08-29T19:50:53.972Z,100026.72
2022-08-29T19:53:57.195Z,100031.59
2022-08-29T19:56:59.568Z,100030.38
2022-08-29T20:00:02.125Z,100034.59
2022-08-29T20:03:14.931Z,100021.38
2022-08-29T20:06:17.272Z,100026.34
2022-08-29T20:12:26.367Z,100025.50
2022-08-29T20:15:30.919Z,100035.19
2022-08-29T20:18:33.786Z,100026.50
2022-08-29T20:21:36.174Z,100031.38
2022-08-29T20:24:38.251Z,100037.69
2022-08-29T20:27:40.550Z,100045.00
2022-08-29T20:30:42.885Z,100038.50
2022-08-29T20:33:47.404Z,100037.69
2022-08-29T20:37:08.075Z,100041.22
2022-08-29T20:40:13.486Z,100047.75
2022-08-29T20:43:16.408Z,100047.56
2022-08-29T20:46:18.530Z,100046.44
2022-08-29T20:49:23.239Z,100035.06
2022-08-29T20:52:25.378Z,100024.94
2022-08-29T20:55:27.487Z,100034.84
2022-08-29T20:58:30.125Z,100032.47
2022-08-29T21:01:33.313Z,100035.75
2022-08-29T21:04:54.195Z,100038.09
2022-08-29T21:07:56.384Z,100035.88
2022-08-29T21:10:59.476Z,100035.22
2022-08-29T21:14:01.614Z,100049.94
2022-08-29T21:17:05.448Z,100042.59
2022-08-29T21:20:08.710Z,100045.28
2022-08-29T21:23:12.205Z,100044.91
2022-08-29T21:26:14.935Z,100041.22
2022-08-29T21:29:17.293Z,100053.50
2022-08-29T21:32:22.405Z,100049.59
2022-08-29T21:35:24.696Z,100053.09
2022-08-29T21:38:29.101Z,100053.94
2022-08-29T21:41:31.796Z,100050.13
2022-08-29T21:44:34.035Z,100055.94
2022-08-29T21:47:37.273Z,100048.88
2022-08-29T21:50:39.381Z,100049.31
2022-08-29T21:53:41.602Z,100057.34
2022-08-29T21:56:44.164Z,100056.91
2022-08-29T21:59:46.351Z,100057.56
2022-08-29T22:02:48.734Z,100055.28
2022-08-29T22:05:50.860Z,100062.53
2022-08-29T22:08:54.747Z,100053.06
2022-08-29T22:11:58.051Z,100054.13
2022-08-29T22:15:18.979Z,100059.44
2022-08-29T22:18:22.408Z,100055.00
2022-08-29T22:21:24.782Z,100047.44
2022-08-29T22:24:26.850Z,100049.09
2022-08-29T22:27:28.943Z,100048.41
2022-08-29T22:30:32.410Z,100040.50
2022-08-29T22:33:35.434Z,100044.72
2022-08-29T22:36:37.525Z,100043.53
2022-08-29T22:39:39.602Z,100043.66
2022-08-29T22:42:41.792Z,100046.41
2022-08-29T22:45:44.016Z,100040.31
2022-08-29T22:48:46.118Z,100043.88
2022-08-29T22:51:49.053Z,100037.25
2022-08-29T22:54:51.155Z,100032.84
2022-08-29T22:57:53.249Z,100034.28
2022-08-29T23:00:55.937Z,100033.19
2022-08-29T23:03:58.787Z,100036.78
2022-08-29T23:07:01.120Z,100034.72
2022-08-29T23:10:04.175Z,100035.84
2022-08-29T23:13:06.243Z,100039.88
2022-08-29T23:16:08.415Z,100034.00
2022-08-29T23:19:10.567Z,100041.88
2022-08-29T23:22:12.828Z,100041.38
2022-08-29T23:25:16.119Z,100038.72
2022-08-29T23:28:18.229Z,100036.28
2022-08-29T23:31:21.101Z,100038.25
2022-08-29T23:34:24.086Z,100045.28
2022-08-29T23:37:26.195Z,100043.19
2022-08-29T23:40:28.482Z,100049.75
2022-08-29T23:43:31.103Z,100043.25
2022-08-29T23:46:39.007Z,100037.56
2022-08-29T23:49:41.232Z,100033.16
2022-08-29T23:52:43.879Z,100034.84
2022-08-29T23:55:46.294Z,100033.41
2022-08-29T23:58:48.397Z,100035.13
